Time;durP1;ratioP1;P1;durP2;ratioP2;P2;SDS_P1;SDS_P2;PMS_P1;PMS_P2;Temp;Humidity;BMP_temperature;BMP_pressure;BME280_temperature;BME280_humidity;BME280_pressure;Samples;Min_cycle;Max_cycle;Signal;HPM_P1;HPM_P2
2022/01/02 00:00:22;;;;;;;10.57;6.33;;;9.70;99.90;;;;;;5069873;28;20176;-78
2022/01/02 00:03:08;;;;;;;9.33;6.20;;;9.50;99.90;;;;;;5052968;28;20671;-77
2022/01/02 00:05:38;;;;;;;11.50;6.50;;;9.60;99.90;;;;;;5069835;28;20191;-77
2022/01/02 00:08:09;;;;;;;9.93;6.10;;;9.60;99.90;;;;;;5053354;28;20208;-77
2022/01/02 00:10:43;;;;;;;10.07;6.70;;;9.60;99.90;;;;;;5069956;28;20203;-78
2022/01/02 00:13:16;;;;;;;7.23;5.63;;;9.50;99.90;;;;;;5053265;28;20188;-82
2022/01/02 00:15:42;;;;;;;10.97;6.13;;;9.60;99.90;;;;;;5069223;28;20211;-81
2022/01/02 00:18:13;;;;;;;10.60;6.00;;;9.50;99.90;;;;;;5020073;28;20184;-83
2022/01/02 00:20:49;;;;;;;9.93;5.63;;;9.40;99.90;;;;;;5053123;28;20721;-79
2022/01/02 00:23:20;;;;;;;7.83;5.47;;;9.30;99.90;;;;;;5069309;28;20192;-79
2022/01/02 00:25:52;;;;;;;8.57;5.77;;;9.40;99.90;;;;;;5036417;28;20215;-82
2022/01/02 00:28:18;;;;;;;11.23;5.37;;;9.40;99.90;;;;;;5053475;28;20282;-83
2022/01/02 00:30:46;;;;;;;6.70;5.20;;;9.40;99.90;;;;;;5069407;28;20188;-82
2022/01/02 00:33:12;;;;;;;9.00;5.70;;;9.40;99.90;;;;;;5052441;28;20566;-79
2022/01/02 00:35:38;;;;;;;9.00;5.67;;;9.50;99.90;;;;;;5052684;28;20192;-83
2022/01/02 00:38:15;;;;;;;9.40;6.37;;;9.50;99.90;;;;;;5050709;28;20189;-78
2022/01/02 00:40:44;;;;;;;11.33;6.20;;;9.60;99.90;;;;;;5049825;28;20208;-82
2022/01/02 00:43:13;;;;;;;10.30;6.37;;;9.50;99.90;;;;;;5050470;28;20224;-82
2022/01/02 00:45:47;;;;;;;10.10;6.13;;;9.50;99.90;;;;;;5016260;28;20250;-78
2022/01/02 00:48:27;;;;;;;10.83;6.30;;;9.40;99.90;;;;;;5016540;28;20213;-82
2022/01/02 00:51:01;;;;;;;11.57;6.70;;;9.30;99.90;;;;;;5032808;28;20218;-82
2022/01/02 00:53:33;;;;;;;10.30;6.63;;;9.40;99.90;;;;;;5049319;28;20203;-82
2022/01/02 00:56:01;;;;;;;9.67;6.17;;;9.40;99.90;;;;;;5049526;28;20185;-81
2022/01/02 00:58:37;;;;;;;11.33;6.50;;;9.40;99.90;;;;;;5032544;28;20193;-78
2022/01/02 01:01:06;;;;;;;12.03;6.87;;;9.50;99.90;;;;;;5049342;28;20192;-82
2022/01/02 01:03:33;;;;;;;9.33;5.67;;;9.20;99.90;;;;;;5035898;28;20193;-78
2022/01/02 01:06:04;;;;;;;10.27;5.20;;;9.00;99.90;;;;;;5054280;28;20189;-78
2022/01/02 01:08:31;;;;;;;10.20;5.67;;;9.20;99.90;;;;;;5036405;28;20232;-77
2022/01/02 01:10:59;;;;;;;8.57;5.13;;;9.40;99.90;;;;;;5067530;28;20218;-79
2022/01/02 01:13:26;;;;;;;8.90;5.20;;;9.20;99.90;;;;;;5073147;28;20219;-79
2022/01/02 01:15:52;;;;;;;9.83;5.30;;;9.20;99.90;;;;;;5039443;28;20216;-78
2022/01/02 01:18:18;;;;;;;8.40;4.97;;;9.40;99.90;;;;;;5073156;28;20258;-82
2022/01/02 01:20:45;;;;;;;7.87;4.97;;;9.20;99.90;;;;;;5073956;28;20204;-83
2022/01/02 01:23:16;;;;;;;7.73;4.60;;;9.20;99.90;;;;;;5056423;28;20202;-82
2022/01/02 01:25:45;;;;;;;6.70;4.60;;;9.20;99.90;;;;;;5072907;28;20195;-78
2022/01/02 01:28:13;;;;;;;6.70;4.57;;;9.20;99.90;;;;;;5056409;28;20426;-82
2022/01/02 01:30:39;;;;;;;7.77;4.83;;;9.10;99.90;;;;;;5045149;28;20545;-78
2022/01/02 01:33:05;;;;;;;6.83;4.47;;;9.20;99.90;;;;;;5065375;28;20338;-82
2022/01/02 01:35:31;;;;;;;6.80;4.00;;;9.40;99.90;;;;;;5040290;28;20291;-78
2022/01/02 01:37:57;;;;;;;6.23;4.03;;;9.30;99.90;;;;;;5039941;28;20200;-78
2022/01/02 01:40:23;;;;;;;6.20;4.10;;;9.20;99.90;;;;;;5057194;28;20172;-77
2022/01/02 01:43:02;;;;;;;7.20;4.80;;;9.20;99.90;;;;;;5053910;28;20397;-77
2022/01/02 01:45:29;;;;;;;8.53;5.20;;;9.10;99.90;;;;;;5039815;28;20183;-79
2022/01/02 01:48:00;;;;;;;8.20;5.30;;;9.30;99.90;;;;;;5051221;28;20227;-78
2022/01/02 01:50:45;;;;;;;9.23;5.53;;;9.20;99.90;;;;;;5073292;28;20188;-82
2022/01/02 01:53:12;;;;;;;5.63;3.70;;;9.20;99.90;;;;;;5073013;28;20200;-79
2022/01/02 01:55:38;;;;;;;5.20;3.67;;;8.90;99.90;;;;;;5056224;28;20200;-79
2022/01/02 01:58:05;;;;;;;5.67;3.90;;;9.00;99.90;;;;;;5056673;28;20266;-82
2022/01/02 02:00:33;;;;;;;4.90;3.37;;;9.00;99.90;;;;;;5056203;28;20196;-82
2022/01/02 02:03:00;;;;;;;4.23;3.13;;;9.10;99.90;;;;;;5074118;28;20239;-83
2022/01/02 02:05:26;;;;;;;4.33;3.67;;;9.10;99.90;;;;;;5072785;28;20200;-78
2022/01/02 02:07:53;;;;;;;6.47;3.20;;;8.90;99.90;;;;;;5073820;28;20573;-78
2022/01/02 02:10:35;;;;;;;5.87;3.53;;;8.80;99.90;;;;;;5050570;28;20267;-79
2022/01/02 02:13:03;;;;;;;5.33;3.60;;;8.90;99.90;;;;;;5076123;28;20203;-82
2022/01/02 02:15:29;;;;;;;5.83;3.57;;;9.00;99.90;;;;;;5067430;28;20212;-81
2022/01/02 02:17:55;;;;;;;5.20;3.50;;;8.80;99.90;;;;;;5074285;28;20894;-82
2022/01/02 02:20:29;;;;;;;6.90;4.63;;;8.80;99.90;;;;;;5073119;28;20200;-79
2022/01/02 02:22:56;;;;;;;7.17;4.87;;;9.00;99.90;;;;;;5055876;28;20742;-81
2022/01/02 02:25:25;;;;;;;10.27;5.90;;;9.10;99.90;;;;;;5072460;28;20184;-78
2022/01/02 02:27:54;;;;;;;8.77;5.63;;;9.00;99.90;;;;;;5056347;28;20208;-78
2022/01/02 02:30:22;;;;;;;6.57;5.10;;;9.00;99.90;;;;;;5039864;28;20238;-81
2022/01/02 02:32:48;;;;;;;8.47;5.40;;;9.10;99.90;;;;;;5055817;28;20193;-78
2022/01/02 02:35:15;;;;;;;8.83;5.40;;;9.00;99.90;;;;;;5039442;28;20200;-81
2022/01/02 02:37:43;;;;;;;7.83;5.20;;;9.00;99.90;;;;;;5072016;28;20200;-82
2022/01/02 02:40:14;;;;;;;5.67;3.90;;;9.00;99.90;;;;;;5073730;28;20216;-82
2022/01/02 02:42:48;;;;;;;5.83;3.60;;;8.70;99.90;;;;;;5052079;28;20205;-79
2022/01/02 02:51:11;;;;;;;9.57;5.03;;;8.80;99.90;;;;;;5063075;28;20192;-78
2022/01/02 02:53:44;;;;;;;10.03;5.50;;;8.90;99.90;;;;;;5071893;28;20192;-82
2022/01/02 02:56:21;;;;;;;7.57;5.23;;;8.80;99.90;;;;;;5056318;28;20193;-81
2022/01/02 02:58:49;;;;;;;6.67;4.80;;;8.80;99.90;;;;;;5072009;28;20203;-81
2022/01/02 03:01:20;;;;;;;8.73;5.63;;;8.90;99.90;;;;;;5073505;28;20192;-83
2022/01/02 03:03:49;;;;;;;7.53;4.93;;;8.90;99.90;;;;;;5071644;28;20200;-79
2022/01/02 03:06:15;;;;;;;9.67;5.30;;;8.80;99.90;;;;;;5067974;28;20231;-78
2022/01/02 03:08:43;;;;;;;6.87;4.87;;;8.80;99.90;;;;;;5073762;28;20220;-81
2022/01/02 03:11:14;;;;;;;8.13;5.27;;;8.80;99.90;;;;;;5071520;28;20242;-81
2022/01/02 03:13:40;;;;;;;7.00;5.00;;;8.70;99.90;;;;;;5071960;28;20214;-82
2022/01/02 03:16:06;;;;;;;7.30;3.80;;;8.60;99.90;;;;;;5021461;28;20561;-82
2022/01/02 03:18:32;;;;;;;6.03;3.70;;;8.60;99.90;;;;;;5055358;28;20203;-81
2022/01/02 03:20:58;;;;;;;5.93;4.17;;;8.60;99.90;;;;;;5071382;28;20617;-78
2022/01/02 03:23:24;;;;;;;6.57;4.27;;;8.70;99.90;;;;;;5071823;28;20192;-82
2022/01/02 03:25:50;;;;;;;6.57;4.20;;;8.70;99.90;;;;;;5054352;28;20541;-81
2022/01/02 03:28:16;;;;;;;8.10;4.67;;;8.70;99.90;;;;;;5021852;28;20208;-78
2022/01/02 03:30:42;;;;;;;9.27;5.47;;;8.60;99.90;;;;;;5071257;28;20177;-78
2022/01/02 03:33:08;;;;;;;6.03;4.40;;;8.60;99.90;;;;;;5061037;28;20212;-78
2022/01/02 03:35:34;;;;;;;8.30;5.10;;;8.70;99.90;;;;;;5050917;28;20185;-82
2022/01/02 03:38:01;;;;;;;7.73;4.67;;;8.60;99.90;;;;;;5034332;28;20197;-78
2022/01/02 03:40:27;;;;;;;7.30;4.70;;;8.60;99.90;;;;;;5051200;28;20192;-82
2022/01/02 03:42:53;;;;;;;5.03;3.73;;;8.60;99.90;;;;;;5067556;28;20208;-82
2022/01/02 03:45:19;;;;;;;6.83;4.77;;;8.70;99.90;;;;;;5051086;28;20667;-81
2022/01/02 03:47:48;;;;;;;6.00;4.17;;;8.60;99.90;;;;;;5051763;28;20217;-78
2022/01/02 03:50:14;;;;;;;7.77;5.03;;;8.70;99.90;;;;;;5050998;28;20197;-83
2022/01/02 03:52:40;;;;;;;10.73;5.00;;;8.70;99.90;;;;;;5065539;28;20207;-82
2022/01/02 03:55:07;;;;;;;6.03;4.17;;;8.50;99.90;;;;;;5021049;28;20599;-79
2022/01/02 03:57:33;;;;;;;5.97;3.87;;;8.30;99.90;;;;;;5053934;28;20228;-80
2022/01/02 03:59:59;;;;;;;4.83;3.73;;;8.40;99.90;;;;;;5021091;28;20640;-77
2022/01/02 04:02:25;;;;;;;5.20;3.80;;;8.60;99.90;;;;;;5070877;28;20207;-82
2022/01/02 04:04:51;;;;;;;6.13;4.03;;;8.60;99.90;;;;;;5070318;28;20189;-82
2022/01/02 04:07:17;;;;;;;6.67;4.50;;;8.50;99.90;;;;;;5071330;28;20204;-78
2022/01/02 04:09:42;;;;;;;7.13;4.83;;;8.60;99.90;;;;;;5053639;28;20212;-78
2022/01/02 04:12:08;;;;;;;7.13;4.70;;;8.60;99.90;;;;;;5020899;28;20220;-81
2022/01/02 04:14:34;;;;;;;6.30;3.90;;;8.60;99.90;;;;;;5037162;28;20212;-82
2022/01/02 04:17:00;;;;;;;5.60;3.80;;;8.50;99.90;;;;;;5071567;28;20192;-80
2022/01/02 04:19:26;;;;;;;7.03;4.40;;;8.40;99.90;;;;;;5070358;28;20663;-80
2022/01/02 04:21:51;;;;;;;6.83;4.33;;;8.30;99.90;;;;;;5053310;28;20282;-79
2022/01/02 04:24:17;;;;;;;5.17;4.30;;;8.30;99.90;;;;;;5053722;28;20208;-78
2022/01/02 04:26:43;;;;;;;7.87;4.83;;;8.30;99.90;;;;;;5070268;28;20196;-81
2022/01/02 04:29:09;;;;;;;7.07;4.70;;;8.20;99.90;;;;;;5069837;28;20204;-78
2022/01/02 04:31:35;;;;;;;7.70;4.57;;;8.30;99.90;;;;;;5053630;28;20215;-78
2022/01/02 04:34:01;;;;;;;7.30;4.77;;;8.20;99.90;;;;;;5036962;28;20196;-79
2022/01/02 04:36:28;;;;;;;7.43;4.60;;;8.30;99.90;;;;;;5036701;28;20200;-82
2022/01/02 04:38:54;;;;;;;6.80;4.40;;;8.20;99.90;;;;;;5036494;28;20188;-78
2022/01/02 04:41:20;;;;;;;6.47;4.37;;;8.30;99.90;;;;;;5053455;28;20215;-79
2022/01/02 04:43:45;;;;;;;5.43;4.53;;;8.20;99.90;;;;;;5069954;28;20697;-82
2022/01/02 04:46:12;;;;;;;6.70;4.80;;;8.30;99.90;;;;;;5053475;28;20196;-82
2022/01/02 04:48:38;;;;;;;6.77;4.57;;;8.30;99.90;;;;;;5069895;28;20208;-82
2022/01/02 04:51:04;;;;;;;6.83;4.27;;;8.40;99.90;;;;;;5036763;28;20565;-82
2022/01/02 04:53:31;;;;;;;6.03;4.03;;;8.20;99.90;;;;;;5069762;28;20553;-82
2022/01/02 04:55:56;;;;;;;6.90;4.30;;;8.30;99.90;;;;;;5053360;28;20199;-82
2022/01/02 04:58:22;;;;;;;7.23;4.50;;;8.30;99.90;;;;;;5070091;28;20196;-79
2022/01/02 05:00:48;;;;;;;7.80;5.00;;;8.50;99.90;;;;;;5053644;28;20161;-79
2022/01/02 05:03:14;;;;;;;6.00;4.00;;;8.40;99.90;;;;;;5036710;28;20287;-83
2022/01/02 05:05:40;;;;;;;6.27;4.27;;;8.50;99.90;;;;;;5053020;28;20203;-83
2022/01/02 05:08:05;;;;;;;7.20;4.50;;;8.40;99.90;;;;;;5036884;28;20274;-82
2022/01/02 05:10:31;;;;;;;7.63;4.53;;;8.50;99.90;;;;;;5053380;28;20192;-78
2022/01/02 05:12:57;;;;;;;5.93;3.67;;;8.50;99.90;;;;;;5036731;28;20222;-83
2022/01/02 05:15:24;;;;;;;5.90;4.27;;;8.50;99.90;;;;;;5069700;28;20204;-79
2022/01/02 05:17:50;;;;;;;5.23;3.87;;;8.40;99.90;;;;;;5036282;28;20613;-80
2022/01/02 05:20:16;;;;;;;6.33;4.57;;;8.20;99.90;;;;;;5053030;28;20218;-83
2022/01/02 05:22:41;;;;;;;6.50;4.63;;;8.10;99.90;;;;;;5053269;28;20196;-78
2022/01/02 05:25:07;;;;;;;6.70;4.33;;;8.10;99.90;;;;;;5053059;28;20192;-83
2022/01/02 05:27:33;;;;;;;6.63;4.37;;;7.90;99.90;;;;;;5071181;28;20298;-82
2022/01/02 05:29:59;;;;;;;5.33;3.63;;;7.80;99.90;;;;;;5069361;28;20214;-82
2022/01/02 05:32:24;;;;;;;6.43;4.20;;;7.50;99.90;;;;;;5052904;28;20196;-82
2022/01/02 05:34:50;;;;;;;5.47;3.97;;;7.80;99.90;;;;;;5070633;28;20290;-83
2022/01/02 05:37:16;;;;;;;5.77;4.47;;;8.00;99.90;;;;;;5069312;28;20250;-77
2022/01/02 05:39:42;;;;;;;5.03;3.93;;;8.30;99.90;;;;;;5069526;28;20204;-82
2022/01/02 05:42:09;;;;;;;7.07;4.33;;;8.30;99.90;;;;;;5052637;28;20284;-78
2022/01/02 05:44:35;;;;;;;6.07;4.47;;;8.20;99.90;;;;;;5036818;28;20188;-78
2022/01/02 05:47:02;;;;;;;7.10;4.57;;;8.30;99.90;;;;;;5036104;28;20687;-82
2022/01/02 05:49:27;;;;;;;6.83;4.40;;;8.30;99.90;;;;;;5053839;28;20616;-80
2022/01/02 05:51:53;;;;;;;5.57;4.23;;;7.90;99.90;;;;;;5056415;28;20196;-82
2022/01/02 05:54:19;;;;;;;6.70;4.00;;;7.80;99.90;;;;;;5040035;28;20196;-80
2022/01/02 05:56:45;;;;;;;6.40;3.93;;;7.80;99.90;;;;;;5056631;28;20222;-79
2022/01/02 05:59:11;;;;;;;6.60;4.60;;;8.10;99.90;;;;;;5039299;28;20177;-78
2022/01/02 06:01:37;;;;;;;5.73;4.20;;;8.30;99.90;;;;;;5072801;28;20207;-82
2022/01/02 06:04:03;;;;;;;6.03;4.10;;;8.50;99.90;;;;;;5039749;28;20192;-78
2022/01/02 06:06:28;;;;;;;6.50;4.33;;;8.60;99.90;;;;;;5056073;28;20589;-81
2022/01/02 06:08:55;;;;;;;6.07;4.27;;;8.50;99.90;;;;;;5074415;28;20603;-78
2022/01/02 06:11:21;;;;;;;4.73;3.73;;;8.60;99.90;;;;;;5055925;28;20193;-78
2022/01/02 06:13:47;;;;;;;6.90;4.13;;;8.60;99.90;;;;;;5055931;28;20196;-78
2022/01/02 06:16:13;;;;;;;6.27;4.30;;;8.60;99.90;;;;;;5072157;28;20196;-82
2022/01/02 06:18:39;;;;;;;5.73;3.93;;;8.60;99.90;;;;;;5056115;28;20215;-78
2022/01/02 06:21:05;;;;;;;6.03;3.93;;;8.50;99.90;;;;;;5039494;28;20224;-79
2022/01/02 06:23:31;;;;;;;6.97;4.47;;;8.80;99.90;;;;;;5039130;28;20703;-82
2022/01/02 06:25:57;;;;;;;6.67;4.30;;;8.60;99.90;;;;;;5072208;28;20188;-82
2022/01/02 06:28:23;;;;;;;4.33;3.40;;;8.40;99.90;;;;;;5056020;28;20208;-78
2022/01/02 06:30:49;;;;;;;6.67;4.30;;;8.50;99.90;;;;;;5073581;28;20177;-79
2022/01/02 06:33:14;;;;;;;5.53;3.80;;;8.50;99.90;;;;;;5055774;28;20200;-82
2022/01/02 06:35:40;;;;;;;5.70;3.90;;;8.50;99.90;;;;;;5056004;28;20250;-83
2022/01/02 06:38:11;;;;;;;5.57;3.93;;;8.40;99.90;;;;;;5072107;28;20219;-82
2022/01/02 06:40:37;;;;;;;5.83;4.17;;;8.30;99.90;;;;;;5072021;28;20667;-83
2022/01/02 06:43:03;;;;;;;5.33;3.80;;;8.30;99.90;;;;;;5055129;28;20234;-83
2022/01/02 06:45:29;;;;;;;4.57;3.23;;;8.50;99.90;;;;;;5055580;28;20227;-82
2022/01/02 06:47:55;;;;;;;5.40;3.57;;;8.50;99.90;;;;;;5072467;28;20215;-79
2022/01/02 06:50:21;;;;;;;5.50;3.77;;;8.40;99.90;;;;;;5039122;28;20197;-79
2022/01/02 06:52:46;;;;;;;6.03;3.80;;;8.40;99.90;;;;;;5055619;28;20228;-82
2022/01/02 06:55:12;;;;;;;6.47;3.80;;;8.40;99.90;;;;;;5022040;28;20196;-78
2022/01/02 06:57:38;;;;;;;5.63;3.70;;;8.50;99.90;;;;;;5071852;28;20205;-82
2022/01/02 07:00:07;;;;;;;5.70;4.03;;;8.50;99.90;;;;;;5054974;28;20210;-82
2022/01/02 07:02:33;;;;;;;5.80;4.07;;;8.50;99.90;;;;;;5038995;28;20214;-78
2022/01/02 07:04:59;;;;;;;5.77;3.97;;;8.40;99.90;;;;;;5038675;28;20658;-82
2022/01/02 07:07:25;;;;;;;5.40;3.87;;;8.30;99.90;;;;;;5055449;28;20275;-82
2022/01/02 07:09:51;;;;;;;6.83;4.60;;;8.30;99.90;;;;;;5054674;28;20713;-83
2022/01/02 07:12:17;;;;;;;5.77;3.93;;;8.50;99.90;;;;;;5055548;28;20177;-78
2022/01/02 07:14:43;;;;;;;5.07;3.50;;;8.20;99.90;;;;;;5055101;28;20204;-83
2022/01/02 07:17:09;;;;;;;6.37;3.57;;;8.20;99.90;;;;;;5071169;28;20207;-78
2022/01/02 07:19:34;;;;;;;5.97;3.70;;;8.20;99.90;;;;;;5054776;28;20634;-78
2022/01/02 07:22:00;;;;;;;5.13;3.67;;;8.40;99.90;;;;;;5054535;28;20192;-78
2022/01/02 07:24:27;;;;;;;5.63;3.60;;;8.30;99.90;;;;;;5054989;28;20659;-82
2022/01/02 07:26:53;;;;;;;5.87;3.70;;;8.30;99.90;;;;;;5071216;28;20200;-81
2022/01/02 07:29:19;;;;;;;4.77;3.30;;;8.40;99.90;;;;;;5054494;28;20196;-83
2022/01/02 07:31:45;;;;;;;5.73;3.70;;;8.50;99.90;;;;;;5037811;28;20254;-82
2022/01/02 07:34:10;;;;;;;5.67;3.20;;;8.60;99.90;;;;;;5071166;28;20204;-78
2022/01/02 07:36:39;;;;;;;5.10;3.80;;;8.40;99.90;;;;;;5053618;28;20238;-78
2022/01/02 07:39:06;;;;;;;4.27;3.10;;;8.40;99.90;;;;;;5071589;28;20560;-82
2022/01/02 07:41:32;;;;;;;5.50;3.47;;;8.30;99.90;;;;;;5071455;28;20609;-83
2022/01/02 07:43:59;;;;;;;4.93;3.50;;;8.20;99.90;;;;;;5054672;28;20574;-83
2022/01/02 07:46:25;;;;;;;5.17;3.90;;;8.20;99.90;;;;;;5072921;28;20196;-79
2022/01/02 07:48:52;;;;;;;5.30;3.40;;;8.20;99.90;;;;;;5054410;28;20208;-82
2022/01/02 07:51:17;;;;;;;5.40;3.67;;;8.30;99.90;;;;;;5054368;28;20204;-82
2022/01/02 07:53:43;;;;;;;4.87;3.40;;;8.50;99.90;;;;;;5053948;28;20238;-78
2022/01/02 07:56:10;;;;;;;4.23;3.10;;;8.40;99.90;;;;;;5070835;28;20200;-80
2022/01/02 07:58:36;;;;;;;6.50;4.60;;;8.40;99.90;;;;;;5071188;28;20260;-79
2022/01/02 08:01:04;;;;;;;4.57;3.53;;;8.30;99.90;;;;;;5035391;28;20312;-78
2022/01/02 08:03:33;;;;;;;5.33;3.30;;;8.30;99.90;;;;;;5037458;28;20193;-82
2022/01/02 08:06:03;;;;;;;4.50;3.20;;;8.40;99.90;;;;;;5053934;28;20292;-81
2022/01/02 08:08:29;;;;;;;5.30;3.60;;;8.70;99.90;;;;;;5054211;28;20224;-78
2022/01/02 08:10:57;;;;;;;5.03;3.60;;;8.50;99.90;;;;;;5070500;28;20185;-83
2022/01/02 08:13:25;;;;;;;5.50;3.87;;;8.50;99.90;;;;;;5053187;28;20208;-82
2022/01/02 08:15:53;;;;;;;4.17;3.13;;;8.40;99.90;;;;;;5037235;28;20257;-83
2022/01/02 08:18:21;;;;;;;5.97;3.83;;;8.40;99.90;;;;;;5054459;28;20192;-82
2022/01/02 08:20:48;;;;;;;4.20;3.10;;;8.30;99.90;;;;;;5037426;28;20679;-83
2022/01/02 08:23:16;;;;;;;3.50;3.00;;;8.50;99.90;;;;;;5069947;28;20554;-82
2022/01/02 08:25:43;;;;;;;4.90;3.20;;;8.60;99.90;;;;;;5071186;28;20203;-79
2022/01/02 08:28:09;;;;;;;6.33;3.87;;;8.60;99.90;;;;;;5070248;28;20216;-79
2022/01/02 08:30:34;;;;;;;4.67;3.80;;;8.70;99.90;;;;;;5036681;28;20196;-79
2022/01/02 08:33:00;;;;;;;5.73;3.20;;;8.80;99.90;;;;;;5036913;28;20679;-83
2022/01/02 08:35:26;;;;;;;4.63;3.47;;;8.80;99.90;;;;;;5069466;28;20220;-80
2022/01/02 08:37:52;;;;;;;4.87;3.50;;;8.80;99.90;;;;;;5071199;28;20192;-84
2022/01/02 08:40:18;;;;;;;6.20;3.90;;;9.10;99.90;;;;;;5071509;28;20196;-79
2022/01/02 08:42:44;;;;;;;5.17;3.70;;;9.00;99.90;;;;;;5053371;28;20208;-78
2022/01/02 08:45:09;;;;;;;4.87;3.80;;;8.90;99.90;;;;;;5036987;28;20231;-83
2022/01/02 08:47:36;;;;;;;5.13;3.90;;;8.90;99.90;;;;;;5069912;28;20196;-83
2022/01/02 08:50:04;;;;;;;5.47;3.90;;;8.90;99.90;;;;;;5036838;28;20205;-80
2022/01/02 08:52:30;;;;;;;4.40;3.23;;;8.90;99.90;;;;;;5071182;28;20210;-83
2022/01/02 08:54:55;;;;;;;5.23;3.50;;;9.00;99.90;;;;;;5052847;28;20283;-79
2022/01/02 08:57:21;;;;;;;5.93;3.73;;;9.00;99.90;;;;;;5053781;28;20246;-79
2022/01/02 08:59:47;;;;;;;3.53;3.10;;;9.00;99.90;;;;;;5036410;28;20204;-79
2022/01/02 09:02:13;;;;;;;4.37;3.00;;;9.10;99.90;;;;;;5053352;28;20195;-80
2022/01/02 09:04:39;;;;;;;4.80;3.40;;;9.10;99.90;;;;;;5053279;28;20306;-83
2022/01/02 09:07:04;;;;;;;4.67;3.20;;;9.20;99.90;;;;;;5069586;28;20721;-79
2022/01/02 09:09:30;;;;;;;4.87;3.83;;;9.10;99.90;;;;;;5038831;28;20220;-82
2022/01/02 09:11:56;;;;;;;5.70;3.53;;;9.20;99.90;;;;;;5069452;28;20188;-78
2022/01/02 09:14:22;;;;;;;5.27;3.67;;;9.30;99.90;;;;;;5069636;28;20196;-80
2022/01/02 09:16:48;;;;;;;4.53;3.10;;;9.30;99.90;;;;;;5036298;28;20192;-80
2022/01/02 09:19:14;;;;;;;4.20;2.87;;;9.40;99.90;;;;;;5069435;28;20211;-80
2022/01/02 09:21:40;;;;;;;5.00;3.27;;;9.40;99.90;;;;;;5070104;28;20196;-83
2022/01/02 09:24:06;;;;;;;6.27;4.00;;;9.40;99.90;;;;;;5055424;28;20207;-79
2022/01/02 09:26:32;;;;;;;6.63;3.63;;;9.60;99.90;;;;;;5040341;28;20192;-77
2022/01/02 09:28:58;;;;;;;5.80;3.77;;;9.60;99.90;;;;;;5056627;28;20216;-82
2022/01/02 09:31:24;;;;;;;5.50;3.70;;;9.60;99.90;;;;;;5073602;28;20219;-82
2022/01/02 09:33:50;;;;;;;4.70;3.63;;;9.50;99.90;;;;;;5056902;28;20216;-84
2022/01/02 09:36:17;;;;;;;4.67;3.53;;;9.50;99.90;;;;;;5057191;28;20192;-79
2022/01/02 09:38:43;;;;;;;5.20;3.60;;;9.50;99.90;;;;;;5090210;28;20200;-79
2022/01/02 09:41:09;;;;;;;4.13;3.10;;;9.60;99.90;;;;;;5057014;28;20203;-82
2022/01/02 09:43:35;;;;;;;5.30;3.40;;;9.60;99.90;;;;;;5073533;28;20184;-80
2022/01/02 09:46:04;;;;;;;4.77;3.80;;;9.80;99.90;;;;;;5072960;28;20611;-80
2022/01/02 09:48:30;;;;;;;7.23;3.97;;;9.90;99.90;;;;;;5056724;28;20310;-81
2022/01/02 09:50:57;;;;;;;4.93;3.50;;;9.80;99.90;;;;;;5073380;28;20635;-81
2022/01/02 09:53:23;;;;;;;3.60;3.30;;;9.90;99.90;;;;;;5073147;28;20267;-80
2022/01/02 09:55:50;;;;;;;4.50;3.30;;;9.90;99.90;;;;;;5056897;28;20722;-80
2022/01/02 09:58:16;;;;;;;6.33;3.33;;;10.10;99.90;;;;;;5074519;28;20792;-83
2022/01/02 10:00:48;;;;;;;5.27;3.50;;;10.10;99.90;;;;;;5056414;28;20200;-82
2022/01/02 10:03:15;;;;;;;4.77;3.47;;;10.10;99.90;;;;;;5057588;28;20744;-80
2022/01/02 10:05:52;;;;;;;4.27;3.33;;;10.10;99.90;;;;;;5073080;28;20226;-82
2022/01/02 10:08:26;;;;;;;4.97;3.47;;;10.30;99.90;;;;;;5072818;28;20200;-82
2022/01/02 10:11:16;;;;;;;7.07;3.87;;;10.20;99.90;;;;;;5055847;28;20225;-81
2022/01/02 10:13:51;;;;;;;4.93;3.53;;;10.20;99.90;;;;;;5056099;28;20192;-79
2022/01/02 10:16:24;;;;;;;6.37;4.13;;;10.10;99.90;;;;;;5072070;28;20206;-82
2022/01/02 10:18:52;;;;;;;5.27;3.73;;;10.20;99.90;;;;;;5056566;28;20215;-79
2022/01/02 10:21:34;;;;;;;7.90;3.43;;;10.30;99.90;;;;;;5056309;28;20188;-79
2022/01/02 10:24:15;;;;;;;7.87;4.10;;;10.30;99.90;;;;;;5073177;28;20245;-79
2022/01/02 10:27:02;;;;;;;5.83;3.70;;;10.30;99.90;;;;;;5071865;28;20670;-81
2022/01/02 10:29:42;;;;;;;5.27;3.40;;;10.20;99.90;;;;;;5043922;28;20200;-81
2022/01/02 10:32:31;;;;;;;4.43;3.20;;;10.10;99.90;;;;;;5072348;28;20207;-79
2022/01/02 10:35:14;;;;;;;5.17;3.70;;;10.10;99.90;;;;;;5072717;28;20298;-80
2022/01/02 10:37:42;;;;;;;5.80;3.93;;;10.00;99.90;;;;;;5089199;28;20200;-78
2022/01/02 10:40:33;;;;;;;4.23;3.30;;;10.10;99.90;;;;;;5073830;28;20662;-78
2022/01/02 10:43:01;;;;;;;7.10;3.53;;;10.10;99.90;;;;;;5072071;28;20200;-79
2022/01/02 10:45:35;;;;;;;6.17;4.00;;;10.00;99.90;;;;;;5071028;28;20196;-80
2022/01/02 10:48:01;;;;;;;4.90;3.33;;;10.10;99.90;;;;;;5068421;28;20225;-80
2022/01/02 10:50:28;;;;;;;5.87;3.77;;;10.10;99.90;;;;;;5087761;28;20215;-78
2022/01/02 10:52:57;;;;;;;4.00;3.20;;;10.20;99.90;;;;;;5069585;28;20283;-79
2022/01/02 10:55:28;;;;;;;6.30;3.40;;;10.30;99.90;;;;;;5036946;28;20297;-82
2022/01/02 10:57:56;;;;;;;5.07;3.57;;;10.30;99.90;;;;;;5069151;28;20659;-81
2022/01/02 11:00:25;;;;;;;5.83;3.93;;;10.40;99.90;;;;;;5070285;28;20204;-81
2022/01/02 11:02:51;;;;;;;5.60;3.90;;;10.20;99.90;;;;;;5053240;28;20230;-79
2022/01/02 11:05:20;;;;;;;5.97;4.00;;;10.30;99.90;;;;;;5070642;28;20172;-80
2022/01/02 11:07:52;;;;;;;4.60;3.50;;;10.50;99.90;;;;;;5069849;28;20551;-78
2022/01/02 11:10:21;;;;;;;6.07;3.63;;;10.50;99.90;;;;;;5069169;28;20199;-79
2022/01/02 11:12:47;;;;;;;5.10;3.70;;;10.40;99.90;;;;;;5053049;28;20203;-81
2022/01/02 11:15:24;;;;;;;4.53;3.03;;;10.50;99.90;;;;;;5067745;28;20690;-81
2022/01/02 11:17:51;;;;;;;5.37;3.50;;;10.20;99.90;;;;;;5067378;28;20605;-82
2022/01/02 11:20:22;;;;;;;6.50;4.00;;;10.20;99.90;;;;;;5070535;28;20737;-80
2022/01/02 11:23:00;;;;;;;7.27;4.00;;;10.40;99.90;;;;;;5055586;28;20203;-80
2022/01/02 11:25:46;;;;;;;4.90;3.93;;;10.60;99.90;;;;;;5070867;28;20220;-82
2022/01/02 11:28:35;;;;;;;5.43;3.77;;;10.80;99.90;;;;;;5058677;28;20239;-80
2022/01/02 11:31:04;;;;;;;5.57;3.63;;;10.90;99.90;;;;;;5070423;28;20181;-82
2022/01/02 11:33:35;;;;;;;4.63;3.87;;;10.70;99.90;;;;;;5069775;28;20285;-81
2022/01/02 11:36:30;;;;;;;6.10;4.13;;;10.70;99.90;;;;;;5069652;28;20286;-78
2022/01/02 11:38:56;;;;;;;7.27;4.07;;;10.90;99.90;;;;;;5085856;28;20207;-81
2022/01/02 11:41:53;;;;;;;5.67;4.37;;;10.90;99.90;;;;;;5069474;28;20231;-79
2022/01/02 11:44:43;;;;;;;5.90;4.07;;;10.80;99.90;;;;;;5052345;28;20216;-80
2022/01/02 11:47:09;;;;;;;5.97;4.43;;;10.90;99.90;;;;;;5082305;28;20208;-83
2022/01/02 11:49:43;;;;;;;5.43;3.83;;;10.90;99.90;;;;;;5069556;28;20313;-80
2022/01/02 11:52:10;;;;;;;6.23;3.70;;;10.90;99.90;;;;;;5070303;28;20215;-83
2022/01/02 11:54:47;;;;;;;5.27;4.20;;;10.90;99.90;;;;;;5070915;28;20291;-79
2022/01/02 11:57:18;;;;;;;6.97;4.67;;;11.00;99.90;;;;;;5071542;28;20313;-80
2022/01/02 11:59:46;;;;;;;6.03;4.77;;;11.00;99.90;;;;;;5053820;28;20596;-82
2022/01/02 12:02:20;;;;;;;7.57;5.30;;;11.00;99.90;;;;;;5069920;28;20293;-82
2022/01/02 12:05:14;;;;;;;11.00;5.23;;;11.00;99.90;;;;;;5069558;28;20188;-80
2022/01/02 12:07:50;;;;;;;9.20;5.27;;;11.00;99.90;;;;;;5052915;28;20584;-79
2022/01/02 12:10:15;;;;;;;7.70;5.23;;;11.00;99.90;;;;;;5070172;28;20585;-79
2022/01/02 12:12:59;;;;;;;12.03;6.50;;;10.90;99.90;;;;;;5053390;28;20188;-81
2022/01/02 12:15:34;;;;;;;11.50;6.20;;;10.90;99.90;;;;;;5051329;28;20204;-79
2022/01/02 12:18:26;;;;;;;12.97;6.60;;;11.00;99.90;;;;;;5069112;28;20203;-84
2022/01/02 12:20:52;;;;;;;10.40;6.30;;;11.00;99.90;;;;;;5053415;28;20208;-79
2022/01/02 12:23:33;;;;;;;10.20;6.17;;;11.10;99.90;;;;;;5071523;28;20188;-83
2022/01/02 12:26:08;;;;;;;7.53;4.73;;;11.20;99.90;;;;;;5069563;28;20283;-82
2022/01/02 12:28:39;;;;;;;6.83;4.90;;;11.30;99.90;;;;;;5036273;28;20675;-83
2022/01/02 12:31:06;;;;;;;5.67;3.70;;;11.50;99.90;;;;;;5070280;28;20205;-79
2022/01/02 12:33:33;;;;;;;3.07;2.67;;;11.80;99.90;;;;;;5053196;28;20290;-78
2022/01/02 12:36:28;;;;;;;3.07;2.10;;;11.90;99.90;;;;;;5036511;28;20722;-81
2022/01/02 12:39:05;;;;;;;2.03;1.60;;;12.40;99.90;;;;;;5039924;28;20212;-82
2022/01/02 12:41:33;;;;;;;1.80;1.30;;;12.60;99.90;;;;;;5070876;28;20188;-78
2022/01/02 12:44:06;;;;;;;1.33;1.10;;;12.90;99.90;;;;;;5053408;28;20254;-79
2022/01/02 12:46:41;;;;;;;1.57;1.03;;;13.10;99.90;;;;;;5086503;28;20252;-80
2022/01/02 12:49:15;;;;;;;1.60;0.90;;;13.20;99.90;;;;;;5053925;28;20231;-82
2022/01/02 12:51:48;;;;;;;1.27;0.90;;;13.30;99.90;;;;;;5086311;28;20597;-81
2022/01/02 12:54:19;;;;;;;1.57;1.00;;;13.50;99.90;;;;;;5034645;28;20571;-81
2022/01/02 12:56:53;;;;;;;1.40;0.83;;;13.80;99.90;;;;;;5052549;28;20310;-83
2022/01/02 12:59:29;;;;;;;0.93;0.73;;;14.00;99.90;;;;;;5055784;28;20200;-79
2022/01/02 13:02:07;;;;;;;2.13;0.90;;;14.10;99.90;;;;;;5051964;28;20196;-82
2022/01/02 13:04:41;;;;;;;2.77;1.30;;;14.20;99.90;;;;;;5070636;28;20208;-78
2022/01/02 13:07:13;;;;;;;1.10;1.00;;;14.40;99.90;;;;;;5068730;28;20658;-78